createdAt,value
2022-11-26T00:02:28.682Z,2.75
2022-11-26T00:04:57.984Z,3.28
2022-11-26T00:07:28.506Z,3.92
2022-11-26T00:09:57.113Z,3.05
2022-11-26T00:12:27.705Z,3.00
2022-11-26T00:14:55.845Z,3.00
2022-11-26T00:17:23.418Z,3.42
2022-11-26T00:19:50.890Z,4.20
2022-11-26T00:22:40.480Z,2.22
2022-11-26T00:25:14.594Z,3.03
2022-11-26T00:27:42.146Z,3.53
2022-11-26T00:30:25.444Z,4.18
2022-11-26T00:32:54.320Z,3.13
2022-11-26T00:35:23.359Z,4.47
2022-11-26T00:37:57.047Z,2.83
2022-11-26T00:40:31.508Z,3.72
2022-11-26T00:43:01.837Z,3.80
2022-11-26T00:45:31.506Z,1.88
2022-11-26T00:47:58.940Z,3.40
2022-11-26T00:50:27.935Z,4.13
2022-11-26T00:52:57.126Z,4.20
2022-11-26T00:55:30.640Z,5.18
2022-11-26T01:00:46.340Z,3.72
2022-11-26T01:03:13.694Z,4.63
2022-11-26T01:05:41.198Z,4.15
2022-11-26T01:08:41.126Z,3.90
2022-11-26T01:11:16.620Z,5.18
2022-11-26T01:13:46.248Z,4.05
2022-11-26T01:16:20.987Z,4.78
2022-11-26T01:18:49.754Z,4.45
2022-11-26T01:21:17.612Z,3.78
2022-11-26T01:23:45.536Z,4.53
2022-11-26T01:26:23.368Z,3.95
2022-11-26T01:28:51.732Z,3.55
2022-11-26T01:31:22.781Z,4.53
2022-11-26T01:33:50.334Z,4.00
2022-11-26T01:36:20.488Z,4.40
2022-11-26T01:38:48.256Z,4.47
2022-11-26T01:41:35.033Z,3.88
2022-11-26T01:44:04.822Z,3.55
2022-11-26T01:46:36.830Z,4.13
2022-11-26T01:49:25.697Z,3.92
2022-11-26T01:52:25.071Z,4.40
2022-11-26T01:54:53.710Z,4.75
2022-11-26T01:57:30.328Z,4.53
2022-11-26T02:00:04.244Z,4.03
2022-11-26T02:02:41.471Z,4.97
2022-11-26T02:05:18.373Z,4.72
2022-11-26T02:07:46.986Z,5.20
2022-11-26T02:10:15.258Z,3.90
2022-11-26T02:12:43.497Z,4.13
2022-11-26T02:15:12.744Z,4.03
2022-11-26T02:17:42.806Z,2.40
2022-11-26T02:20:16.100Z,4.30
2022-11-26T02:22:49.728Z,4.57
2022-11-26T02:25:28.005Z,4.47
2022-11-26T02:28:07.130Z,4.97
2022-11-26T02:30:43.273Z,4.15
2022-11-26T02:33:36.776Z,4.93
2022-11-26T02:36:13.479Z,3.88
2022-11-26T02:38:41.537Z,2.58
2022-11-26T02:41:09.556Z,4.70
2022-11-26T02:43:38.710Z,4.75
2022-11-26T02:46:12.129Z,3.25
2022-11-26T02:51:21.136Z,4.20
2022-11-26T02:53:51.156Z,4.53
2022-11-26T02:56:27.837Z,3.67
2022-11-26T02:58:56.503Z,5.00
2022-11-26T03:01:32.132Z,4.32
2022-11-26T03:04:06.350Z,4.90
2022-11-26T03:06:35.189Z,5.30
2022-11-26T03:09:02.884Z,4.45
2022-11-26T03:11:30.596Z,5.38
2022-11-26T03:13:58.116Z,4.40
2022-11-26T03:16:25.535Z,5.78
2022-11-26T03:18:52.958Z,2.40
2022-11-26T03:21:20.329Z,3.63
2022-11-26T03:23:47.666Z,4.60
2022-11-26T03:26:15.105Z,6.10
2022-11-26T03:28:42.491Z,5.07
2022-11-26T03:31:10.003Z,4.82
2022-11-26T03:33:37.345Z,4.63
2022-11-26T03:36:04.930Z,5.68
2022-11-26T03:38:32.277Z,3.83
2022-11-26T03:41:01.859Z,3.65
2022-11-26T03:43:29.320Z,4.35
2022-11-26T03:45:57.824Z,3.78
2022-11-26T03:48:25.227Z,6.68
2022-11-26T03:50:52.624Z,4.57
2022-11-26T03:53:20.061Z,4.70
2022-11-26T03:55:47.965Z,5.10
2022-11-26T03:58:15.442Z,4.88
2022-11-26T04:00:42.879Z,4.60
2022-11-26T04:03:10.315Z,3.50
2022-11-26T04:05:37.744Z,4.30
2022-11-26T04:08:05.146Z,6.50
2022-11-26T04:10:32.608Z,6.20
2022-11-26T04:13:00.004Z,4.40
2022-11-26T04:15:27.359Z,5.45
2022-11-26T04:17:54.799Z,4.00
2022-11-26T04:20:22.249Z,2.67
2022-11-26T04:22:49.798Z,4.78
2022-11-26T04:25:17.210Z,4.78
2022-11-26T04:27:44.526Z,4.90
2022-11-26T04:30:12.361Z,5.78
2022-11-26T04:32:40.222Z,5.43
2022-11-26T04:35:08.947Z,5.28
2022-11-26T04:37:36.859Z,4.78
2022-11-26T04:40:04.526Z,4.13
2022-11-26T04:42:32.001Z,5.32
2022-11-26T04:44:59.598Z,3.05
2022-11-26T04:47:27.072Z,4.85
2022-11-26T04:49:54.459Z,6.07
2022-11-26T04:52:22.048Z,2.67
2022-11-26T04:54:49.381Z,6.18
2022-11-26T04:57:16.915Z,4.10
2022-11-26T04:59:44.403Z,5.28
2022-11-26T05:02:11.662Z,6.13
2022-11-26T05:04:39.195Z,4.38
2022-11-26T05:07:06.730Z,3.30
2022-11-26T05:09:34.233Z,6.07
2022-11-26T05:12:01.587Z,4.65
2022-11-26T05:14:28.967Z,4.95
2022-11-26T05:16:56.323Z,5.07
2022-11-26T05:19:23.766Z,4.30
2022-11-26T05:21:51.146Z,3.05
2022-11-26T05:24:18.505Z,5.40
2022-11-26T05:26:45.906Z,5.13
2022-11-26T05:29:13.187Z,4.22
2022-11-26T05:31:40.809Z,6.35
2022-11-26T05:34:08.384Z,4.85
2022-11-26T05:36:35.800Z,4.93
2022-11-26T05:39:03.841Z,5.72
2022-11-26T05:41:31.273Z,3.47
2022-11-26T05:43:58.641Z,6.75
2022-11-26T05:46:27.515Z,5.50
2022-11-26T05:48:54.820Z,7.32
2022-11-26T05:51:22.671Z,4.95
2022-11-26T05:53:50.057Z,3.83
2022-11-26T05:56:17.420Z,6.07
2022-11-26T05:58:44.968Z,6.53
2022-11-26T06:01:12.281Z,4.55
2022-11-26T06:03:40.819Z,12.38
2022-11-26T06:06:09.605Z,13.23
2022-11-26T06:08:37.457Z,8.18
2022-11-26T06:11:04.971Z,13.05
2022-11-26T06:13:32.377Z,14.25
2022-11-26T06:15:59.965Z,15.88
2022-11-26T06:18:27.427Z,19.77
2022-11-26T06:20:54.782Z,17.98
2022-11-26T06:23:22.229Z,17.23
2022-11-26T06:25:50.154Z,14.30
2022-11-26T06:28:17.669Z,16.38
2022-11-26T06:30:46.320Z,8.57
2022-11-26T06:33:14.236Z,15.63
2022-11-26T06:35:41.833Z,16.50
2022-11-26T06:38:09.754Z,12.23
2022-11-26T06:40:37.080Z,10.93
2022-11-26T06:43:04.473Z,8.15
2022-11-26T06:45:31.945Z,6.60
2022-11-26T06:47:59.320Z,6.38
2022-11-26T06:50:26.801Z,5.78
2022-11-26T06:52:54.289Z,4.95
2022-11-26T06:55:22.063Z,5.63
2022-11-26T06:57:51.490Z,5.88
2022-11-26T07:00:19.305Z,5.78
2022-11-26T07:02:46.774Z,6.15
2022-11-26T07:05:14.528Z,5.55
2022-11-26T07:07:42.292Z,5.22
2022-11-26T07:10:10.029Z,5.90
2022-11-26T07:12:37.373Z,5.72
2022-11-26T07:15:05.784Z,4.90
2022-11-26T07:17:33.149Z,5.53
2022-11-26T07:20:00.469Z,5.90
2022-11-26T07:22:27.962Z,4.65
2022-11-26T07:24:55.300Z,5.95
2022-11-26T07:27:22.690Z,5.03
2022-11-26T07:29:52.192Z,6.00
2022-11-26T07:32:19.609Z,4.60
2022-11-26T07:34:46.986Z,5.05
2022-11-26T07:37:14.477Z,5.47
2022-11-26T07:39:41.802Z,5.45
2022-11-26T07:42:09.255Z,5.70
2022-11-26T07:44:37.388Z,5.28
2022-11-26T07:47:04.963Z,4.65
2022-11-26T07:49:32.379Z,4.90
2022-11-26T07:51:59.738Z,4.15
2022-11-26T07:54:27.078Z,3.33
2022-11-26T07:56:54.517Z,4.43
2022-11-26T07:59:22.839Z,3.45
2022-11-26T08:01:50.312Z,4.40
2022-11-26T08:04:17.741Z,3.95
2022-11-26T08:06:45.155Z,3.67
2022-11-26T08:09:12.577Z,4.70
2022-11-26T08:11:40.012Z,4.00
2022-11-26T08:14:11.315Z,5.28
2022-11-26T08:16:39.410Z,4.43
2022-11-26T08:19:11.240Z,5.00
2022-11-26T08:21:39.814Z,5.65
2022-11-26T08:24:08.863Z,3.90
2022-11-26T08:26:39.877Z,5.40
2022-11-26T08:29:11.301Z,4.70
2022-11-26T08:31:45.590Z,4.88
2022-11-26T08:34:16.142Z,5.90
2022-11-26T08:36:44.865Z,5.38
2022-11-26T08:39:17.749Z,5.13
2022-11-26T08:41:51.650Z,4.82
2022-11-26T08:44:20.351Z,5.45
2022-11-26T08:46:48.251Z,4.97
2022-11-26T08:49:17.252Z,5.63
2022-11-26T08:51:45.043Z,5.97
2022-11-26T08:54:12.526Z,4.90
2022-11-26T08:56:41.429Z,6.32
2022-11-26T08:59:08.786Z,6.35
2022-11-26T09:01:36.304Z,5.80
2022-11-26T09:04:04.993Z,5.07
2022-11-26T09:06:36.870Z,6.60
2022-11-26T09:09:15.634Z,6.72
2022-11-26T09:11:50.894Z,4.45
2022-11-26T09:14:21.543Z,4.50
2022-11-26T09:16:49.166Z,4.07
2022-11-26T09:19:17.559Z,6.60
2022-11-26T09:21:45.712Z,5.32
2022-11-26T09:24:13.488Z,5.20
2022-11-26T09:26:41.344Z,4.13
2022-11-26T09:29:10.369Z,5.07
2022-11-26T09:31:49.801Z,5.60
2022-11-26T09:34:25.150Z,6.45
2022-11-26T09:36:52.646Z,5.53
2022-11-26T09:39:20.123Z,6.25
2022-11-26T09:42:09.021Z,2.97
2022-11-26T09:45:05.682Z,6.03
2022-11-26T09:47:45.865Z,5.53
2022-11-26T09:50:16.041Z,5.57
2022-11-26T09:53:08.303Z,6.07
2022-11-26T09:55:39.063Z,8.00
2022-11-26T09:58:16.632Z,4.60
2022-11-26T10:00:47.140Z,5.95
2022-11-26T10:03:18.923Z,5.95
2022-11-26T10:05:51.086Z,6.13
2022-11-26T10:08:31.651Z,4.03
2022-11-26T10:11:11.095Z,6.43
2022-11-26T10:13:48.475Z,5.50
2022-11-26T10:16:19.175Z,3.40
2022-11-26T10:19:20.937Z,4.07
2022-11-26T10:22:03.820Z,6.28
2022-11-26T10:24:37.109Z,4.43
2022-11-26T10:27:18.584Z,5.22
2022-11-26T10:30:28.553Z,4.97
2022-11-26T10:32:58.778Z,4.70
2022-11-26T10:35:30.121Z,5.63
2022-11-26T10:37:58.553Z,6.03
2022-11-26T10:40:33.272Z,5.60
2022-11-26T10:43:06.568Z,5.35
2022-11-26T10:45:41.067Z,7.72
2022-11-26T10:48:29.477Z,5.95
2022-11-26T10:51:00.149Z,6.90
2022-11-26T10:53:31.323Z,6.43
2022-11-26T10:56:06.200Z,6.32
2022-11-26T10:58:41.328Z,8.65
2022-11-26T11:01:11.144Z,8.98
2022-11-26T11:06:42.859Z,5.03
2022-11-26T11:09:29.183Z,5.45
2022-11-26T11:12:12.022Z,6.20
2022-11-26T11:14:43.455Z,6.90
2022-11-26T11:17:41.279Z,6.30
2022-11-26T11:20:17.937Z,7.20
2022-11-26T11:22:47.384Z,5.50
2022-11-26T11:25:28.020Z,5.47
2022-11-26T11:28:03.244Z,8.48
2022-11-26T11:30:37.935Z,7.20
2022-11-26T11:33:26.497Z,5.77
2022-11-26T11:36:01.572Z,5.25
2022-11-26T11:38:32.140Z,2.67
2022-11-26T11:41:05.388Z,4.05
2022-11-26T11:43:37.390Z,5.63
2022-11-26T11:46:23.009Z,3.03
2022-11-26T11:49:11.687Z,4.30
2022-11-26T11:52:09.027Z,5.18
2022-11-26T11:55:15.464Z,4.40
2022-11-26T11:57:42.947Z,4.80
2022-11-26T12:00:30.693Z,5.35
2022-11-26T12:03:25.921Z,4.00
2022-11-26T12:06:17.976Z,5.15
2022-11-26T12:08:52.753Z,6.30
2022-11-26T12:11:20.471Z,5.13
2022-11-26T12:13:54.064Z,6.30
2022-11-26T12:16:26.390Z,4.40
2022-11-26T12:19:12.428Z,5.30
2022-11-26T12:21:55.550Z,1.70
2022-11-26T12:25:04.315Z,6.00
2022-11-26T12:27:58.432Z,4.60
2022-11-26T12:30:37.309Z,3.72
2022-11-26T12:33:16.434Z,4.85
2022-11-26T12:35:50.979Z,4.15
2022-11-26T12:38:38.923Z,6.28
2022-11-26T12:41:11.574Z,2.60
2022-11-26T12:44:01.862Z,3.78
2022-11-26T12:46:33.018Z,7.20
2022-11-26T12:49:48.120Z,6.07
2022-11-26T12:52:24.604Z,4.38
2022-11-26T12:55:24.503Z,7.45
2022-11-26T12:58:01.577Z,6.00
2022-11-26T13:00:36.425Z,4.93
2022-11-26T13:03:06.970Z,3.88
2022-11-26T13:06:22.229Z,3.28
2022-11-26T13:08:56.183Z,6.10
2022-11-26T13:11:45.202Z,3.45
2022-11-26T13:14:15.570Z,5.25
2022-11-26T13:16:56.345Z,5.65
2022-11-26T13:19:29.849Z,5.72
2022-11-26T13:25:16.122Z,4.53
2022-11-26T13:28:00.954Z,6.20
2022-11-26T13:30:38.589Z,3.90
2022-11-26T13:33:31.185Z,2.53
2022-11-26T13:36:17.088Z,4.43
2022-11-26T13:39:22.035Z,5.35
2022-11-26T13:42:07.891Z,4.10
2022-11-26T13:44:51.575Z,4.07
2022-11-26T13:47:41.986Z,4.40
2022-11-26T13:50:43.311Z,5.63
2022-11-26T13:53:28.608Z,6.28
2022-11-26T13:56:04.305Z,5.28
2022-11-26T13:58:37.786Z,1.60
2022-11-26T14:03:51.767Z,5.50
2022-11-26T14:06:20.455Z,3.45
2022-11-26T14:08:50.924Z,4.10
2022-11-26T14:11:46.021Z,6.00
2022-11-26T14:14:25.710Z,4.53
2022-11-26T14:17:02.508Z,4.90
2022-11-26T14:19:45.109Z,6.63
2022-11-26T14:22:21.870Z,5.65
2022-11-26T14:24:49.635Z,4.10
2022-11-26T14:27:18.728Z,4.78
2022-11-26T14:29:48.267Z,5.57
2022-11-26T14:32:18.321Z,4.88
2022-11-26T14:34:54.759Z,6.60
2022-11-26T14:37:31.287Z,5.55
2022-11-26T14:40:05.626Z,5.97
2022-11-26T14:42:33.404Z,6.22
2022-11-26T14:45:15.605Z,4.28
2022-11-26T14:47:49.600Z,3.42
2022-11-26T14:50:21.266Z,4.40
2022-11-26T14:52:55.765Z,6.50
2022-11-26T14:55:28.384Z,4.25
2022-11-26T14:58:04.854Z,6.35
2022-11-26T15:00:35.858Z,2.92
2022-11-26T15:03:04.470Z,5.28
2022-11-26T15:05:42.047Z,6.90
2022-11-26T15:08:20.552Z,3.72
2022-11-26T15:10:48.107Z,5.15
2022-11-26T15:13:41.123Z,5.55
2022-11-26T15:16:27.844Z,4.57
2022-11-26T15:18:57.600Z,5.75
2022-11-26T15:21:27.534Z,4.18
2022-11-26T15:23:59.443Z,5.90
2022-11-26T15:26:34.632Z,6.45
2022-11-26T15:29:02.889Z,6.38
2022-11-26T15:31:43.049Z,4.13
2022-11-26T15:34:13.490Z,5.63
2022-11-26T15:36:41.549Z,5.90
2022-11-26T15:39:24.963Z,5.30
2022-11-26T15:41:54.007Z,5.57
2022-11-26T15:44:25.586Z,8.10
2022-11-26T15:46:55.928Z,6.72
2022-11-26T15:49:32.514Z,4.95
2022-11-26T15:52:04.162Z,7.22
2022-11-26T15:54:49.569Z,6.18
2022-11-26T15:57:33.206Z,5.38
2022-11-26T16:00:42.110Z,2.28
2022-11-26T16:03:42.306Z,6.45
2022-11-26T16:06:33.407Z,3.42
2022-11-26T16:09:12.547Z,3.95
2022-11-26T16:11:57.228Z,6.03
2022-11-26T16:14:37.413Z,2.83
2022-11-26T16:17:08.686Z,6.13
2022-11-26T16:19:37.981Z,4.47
2022-11-26T16:22:14.619Z,2.85
2022-11-26T16:24:44.130Z,6.57
2022-11-26T16:27:18.794Z,5.43
2022-11-26T16:29:47.112Z,4.75
2022-11-26T16:32:17.323Z,6.90
2022-11-26T16:34:45.728Z,2.15
2022-11-26T16:37:32.145Z,5.78
2022-11-26T16:40:21.895Z,4.90
2022-11-26T16:42:50.213Z,7.10
2022-11-26T16:45:18.538Z,4.82
2022-11-26T16:47:54.849Z,6.45
2022-11-26T16:50:26.127Z,7.35
2022-11-26T16:52:55.114Z,6.22
2022-11-26T16:55:25.747Z,4.90
2022-11-26T16:57:59.954Z,4.00
2022-11-26T17:00:28.656Z,5.50
2022-11-26T17:02:56.363Z,6.38
2022-11-26T17:05:25.189Z,8.23
2022-11-26T17:07:56.063Z,6.95
2022-11-26T17:10:29.127Z,7.10
2022-11-26T17:12:57.404Z,5.18
2022-11-26T17:15:25.040Z,7.03
2022-11-26T17:17:54.751Z,6.50
2022-11-26T17:20:27.606Z,7.13
2022-11-26T17:22:55.273Z,6.10
2022-11-26T17:25:22.946Z,5.70
2022-11-26T17:27:53.839Z,6.45
2022-11-26T17:30:24.545Z,7.78
2022-11-26T17:32:52.234Z,8.48
2022-11-26T17:35:21.260Z,6.63
2022-11-26T17:37:48.805Z,4.47
2022-11-26T17:40:23.752Z,1.63
2022-11-26T17:42:51.513Z,4.10
2022-11-26T17:45:20.025Z,5.18
2022-11-26T17:47:47.920Z,5.43
2022-11-26T17:50:25.708Z,7.32
2022-11-26T17:52:55.128Z,4.80
2022-11-26T17:55:24.492Z,3.28
2022-11-26T17:57:52.577Z,4.25
2022-11-26T18:00:24.050Z,4.40
2022-11-26T18:02:52.779Z,5.88
2022-11-26T18:05:20.845Z,6.57
2022-11-26T18:07:50.210Z,6.45
2022-11-26T18:10:20.076Z,6.65
2022-11-26T18:12:48.456Z,6.50
2022-11-26T18:15:24.105Z,3.65
2022-11-26T18:17:54.053Z,5.53
2022-11-26T18:20:27.381Z,4.82
2022-11-26T18:22:58.013Z,5.95
2022-11-26T18:25:26.055Z,5.13
2022-11-26T18:27:54.177Z,5.43
2022-11-26T18:30:21.912Z,3.97
2022-11-26T18:32:49.496Z,5.00
2022-11-26T18:35:17.609Z,6.25
2022-11-26T18:37:45.099Z,3.75
2022-11-26T18:40:17.136Z,5.00
2022-11-26T18:42:45.215Z,5.95
2022-11-26T18:45:16.237Z,4.22
2022-11-26T18:47:44.185Z,4.68
2022-11-26T18:50:14.117Z,5.78
2022-11-26T18:52:42.377Z,4.70
2022-11-26T18:55:10.115Z,5.82
2022-11-26T18:57:37.694Z,3.55
2022-11-26T19:00:06.388Z,4.72
2022-11-26T19:02:38.650Z,4.90
2022-11-26T19:05:06.641Z,2.35
2022-11-26T19:07:34.340Z,1.27
2022-11-26T19:10:22.034Z,4.35
2022-11-26T19:12:49.388Z,4.55
2022-11-26T19:15:17.152Z,6.75
2022-11-26T19:17:44.836Z,5.07
2022-11-26T19:20:14.427Z,5.43
2022-11-26T19:22:43.107Z,5.88
2022-11-26T19:25:10.888Z,3.65
2022-11-26T19:27:38.717Z,2.72
2022-11-26T19:30:08.175Z,5.00
2022-11-26T19:32:37.615Z,6.05
2022-11-26T19:35:06.248Z,4.90
2022-11-26T19:37:34.036Z,6.43
2022-11-26T19:40:01.923Z,6.75
2022-11-26T19:42:30.954Z,4.30
2022-11-26T19:44:58.397Z,4.30
2022-11-26T19:47:33.333Z,4.57
2022-11-26T19:50:01.954Z,5.43
2022-11-26T19:52:29.992Z,3.65
2022-11-26T19:54:57.971Z,4.97
2022-11-26T19:57:25.429Z,4.85
2022-11-26T19:59:53.144Z,6.35
2022-11-26T20:02:20.801Z,5.57
2022-11-26T20:04:48.324Z,4.80
2022-11-26T20:07:32.821Z,3.17
2022-11-26T20:10:00.299Z,5.47
2022-11-26T20:12:27.855Z,3.67
2022-11-26T20:14:55.387Z,5.18
2022-11-26T20:17:22.877Z,4.97
2022-11-26T20:19:50.491Z,4.10
2022-11-26T20:22:18.270Z,4.63
2022-11-26T20:24:45.902Z,2.85
2022-11-26T20:27:13.247Z,4.60
2022-11-26T20:29:40.862Z,3.60
2022-11-26T20:32:08.866Z,5.57
2022-11-26T20:34:36.206Z,4.68
2022-11-26T20:37:04.132Z,4.25
2022-11-26T20:39:31.581Z,5.03
2022-11-26T20:41:59.109Z,6.20
2022-11-26T20:44:28.706Z,4.90
2022-11-26T20:46:57.878Z,3.03
2022-11-26T20:49:28.446Z,5.80
2022-11-26T20:51:58.186Z,6.18
2022-11-26T20:54:25.654Z,4.60
2022-11-26T20:56:53.086Z,5.85
2022-11-26T20:59:20.518Z,5.18
2022-11-26T21:01:47.896Z,4.75
2022-11-26T21:04:15.487Z,6.00
2022-11-26T21:06:44.112Z,5.75
2022-11-26T21:09:13.821Z,5.07
2022-11-26T21:11:41.711Z,5.25
2022-11-26T21:14:14.587Z,5.40
2022-11-26T21:19:13.482Z,3.78
2022-11-26T21:21:40.998Z,5.57
2022-11-26T21:24:09.188Z,3.90
2022-11-26T21:26:36.633Z,5.18
2022-11-26T21:29:04.126Z,4.93
2022-11-26T21:31:32.697Z,6.35
2022-11-26T21:34:02.834Z,6.07
2022-11-26T21:36:31.878Z,6.32
2022-11-26T21:38:59.663Z,6.18
2022-11-26T21:41:27.670Z,4.82
2022-11-26T21:43:55.266Z,6.30
2022-11-26T21:46:25.764Z,5.47
2022-11-26T21:48:54.207Z,5.50
2022-11-26T21:51:22.449Z,6.75
2022-11-26T21:53:50.443Z,6.95
2022-11-26T21:56:20.668Z,6.25
2022-11-26T21:58:49.212Z,6.28
2022-11-26T22:01:27.130Z,5.85
2022-11-26T22:03:56.654Z,5.57
2022-11-26T22:06:24.523Z,3.15
2022-11-26T22:08:53.231Z,6.90
2022-11-26T22:11:30.232Z,6.82
2022-11-26T22:13:57.980Z,4.75
2022-11-26T22:16:30.167Z,7.20
2022-11-26T22:18:59.196Z,6.97
2022-11-26T22:21:30.262Z,5.45
2022-11-26T22:23:59.299Z,6.57
2022-11-26T22:26:27.574Z,7.20
2022-11-26T22:28:58.210Z,6.80
2022-11-26T22:31:28.908Z,6.55
2022-11-26T22:34:17.651Z,7.28
2022-11-26T22:36:46.001Z,3.40
2022-11-26T22:39:15.836Z,5.93
2022-11-26T22:41:44.360Z,5.88
2022-11-26T22:44:12.995Z,5.32
2022-11-26T22:46:40.508Z,4.18
2022-11-26T22:49:10.901Z,4.43
2022-11-26T22:51:38.240Z,5.55
2022-11-26T22:54:07.682Z,6.22
2022-11-26T22:56:38.018Z,4.10
2022-11-26T22:59:07.112Z,4.53
2022-11-26T23:01:36.317Z,5.68
2022-11-26T23:04:07.247Z,5.18
2022-11-26T23:06:36.099Z,6.13
2022-11-26T23:09:06.355Z,4.57
2022-11-26T23:11:41.531Z,5.95
2022-11-26T23:14:09.781Z,5.18
2022-11-26T23:16:39.914Z,5.60
2022-11-26T23:19:07.953Z,4.82
2022-11-26T23:21:40.282Z,5.05
2022-11-26T23:24:08.228Z,5.68
2022-11-26T23:26:38.287Z,5.80
2022-11-26T23:29:07.105Z,3.30
2022-11-26T23:31:38.790Z,4.45
2022-11-26T23:34:07.441Z,5.60
2022-11-26T23:36:35.058Z,4.55
2022-11-26T23:39:05.407Z,5.65
2022-11-26T23:41:32.874Z,7.50
2022-11-26T23:44:00.515Z,5.78
2022-11-26T23:46:32.723Z,5.95
2022-11-26T23:49:00.231Z,6.72
2022-11-26T23:51:31.198Z,6.13
2022-11-26T23:53:58.633Z,6.25
2022-11-26T23:56:28.862Z,5.40
2022-11-26T23:58:58.638Z,6.22
